Time;durP1;ratioP1;P1;durP2;ratioP2;P2;SDS_P1;SDS_P2;PMS_P1;PMS_P2;Temp;Humidity;BMP_temperature;BMP_pressure;BME280_temperature;BME280_humidity;BME280_pressure;Samples;Min_cycle;Max_cycle;Signal;HPM_P1;HPM_P2
2022/03/19 00:00:12;;;;;;;27.23;16.98;;;;;;;7.56;nan;102902.47;5003422;28;20525;-71
2022/03/19 00:02:37;;;;;;;31.23;18.15;;;;;;;7.43;nan;102905.66;5024652;28;20037;-71
2022/03/19 00:05:03;;;;;;;31.67;19.02;;;;;;;7.45;nan;102903.81;5009291;28;20431;-72
2022/03/19 00:07:29;;;;;;;30.77;18.67;;;;;;;7.55;nan;102903.38;5009084;28;20061;-71
2022/03/19 00:09:56;;;;;;;28.70;17.02;;;;;;;7.51;nan;102894.78;5010251;28;20399;-71
2022/03/19 00:12:21;;;;;;;35.10;19.80;;;;;;;7.53;nan;102894.69;5008835;28;20038;-71
2022/03/19 00:14:46;;;;;;;30.08;19.20;;;;;;;7.49;nan;102903.69;5002601;28;20046;-71
2022/03/19 00:17:12;;;;;;;27.77;18.50;;;;;;;7.45;nan;102895.91;5006233;28;20073;-71
2022/03/19 00:19:38;;;;;;;33.20;19.80;;;;;;;7.52;nan;102906.19;5009814;28;20117;-71
2022/03/19 00:22:05;;;;;;;32.40;19.27;;;;;;;7.50;nan;102897.50;5009611;28;20037;-71
2022/03/19 00:24:30;;;;;;;32.20;19.90;;;;;;;7.52;nan;102906.19;5005089;28;20034;-71
2022/03/19 00:26:56;;;;;;;31.65;18.73;;;;;;;7.55;nan;102912.13;5009866;28;20033;-70
2022/03/19 00:29:21;;;;;;;30.83;19.00;;;;;;;7.55;nan;102901.59;5000680;28;20046;-71
2022/03/19 00:31:47;;;;;;;29.27;18.92;;;;;;;7.50;nan;102908.03;4992850;28;20160;-71
2022/03/19 00:34:13;;;;;;;33.72;19.75;;;;;;;7.39;nan;102898.88;5004422;28;20038;-71
2022/03/19 00:36:39;;;;;;;29.30;19.10;;;;;;;7.44;nan;102899.50;5007611;28;20030;-71
2022/03/19 00:39:05;;;;;;;33.08;19.60;;;;;;;7.41;nan;102891.75;5004140;28;20505;-71
2022/03/19 00:41:31;;;;;;;32.08;18.95;;;;;;;7.43;nan;102895.13;4996833;28;20280;-71
2022/03/19 00:43:56;;;;;;;33.30;19.65;;;;;;;7.44;nan;102901.28;5009069;28;20038;-71
2022/03/19 00:46:22;;;;;;;32.00;19.73;;;;;;;7.49;nan;102893.16;5009834;28;20052;-71
2022/03/19 00:48:48;;;;;;;35.50;20.58;;;;;;;7.55;nan;102900.75;5013109;28;20073;-72
2022/03/19 00:51:13;;;;;;;29.65;19.20;;;;;;;7.55;nan;102898.97;5010171;28;20030;-71
2022/03/19 00:53:38;;;;;;;30.88;18.92;;;;;;;7.44;nan;102896.00;5008416;28;20038;-71
2022/03/19 00:56:04;;;;;;;33.85;20.23;;;;;;;7.44;nan;102890.75;5009380;28;20034;-72
2022/03/19 00:58:29;;;;;;;30.75;18.52;;;;;;;7.45;nan;102898.56;5006796;28;20042;-71
2022/03/19 01:00:54;;;;;;;32.08;19.33;;;;;;;7.50;nan;102889.59;4993725;28;20039;-71
2022/03/19 01:03:20;;;;;;;35.03;20.63;;;;;;;7.50;nan;102882.53;5003163;28;20734;-71
2022/03/19 01:05:45;;;;;;;35.95;19.48;;;;;;;7.50;nan;102885.19;5005059;28;20314;-71
2022/03/19 01:08:13;;;;;;;29.08;18.45;;;;;;;7.42;nan;102885.56;5010026;28;20034;-71
2022/03/19 01:10:39;;;;;;;32.65;19.90;;;;;;;7.42;nan;102893.44;5010924;28;20104;-71
2022/03/19 01:13:06;;;;;;;28.95;18.00;;;;;;;7.42;nan;102880.28;4994335;28;20039;-71
2022/03/19 01:15:31;;;;;;;32.80;18.95;;;;;;;7.42;nan;102890.81;4989948;28;20132;-71
2022/03/19 01:17:56;;;;;;;31.02;18.63;;;;;;;7.41;nan;102891.75;4995718;28;20030;-71
2022/03/19 01:20:22;;;;;;;29.88;18.25;;;;;;;7.37;nan;102895.44;5008237;28;20037;-71
2022/03/19 01:22:48;;;;;;;33.42;19.90;;;;;;;7.36;nan;102885.81;5009822;28;20038;-72
2022/03/19 01:25:16;;;;;;;31.13;19.65;;;;;;;7.35;nan;102886.78;5013321;28;20033;-71
2022/03/19 01:27:43;;;;;;;35.90;20.63;;;;;;;7.39;nan;102887.50;5013126;28;20042;-71
2022/03/19 01:30:13;;;;;;;33.50;19.92;;;;;;;7.36;nan;102887.63;5012657;28;20037;-71
2022/03/19 01:32:40;;;;;;;38.72;20.42;;;;;;;7.31;nan;102885.19;5011909;28;20029;-71
2022/03/19 01:35:05;;;;;;;31.52;19.42;;;;;;;7.26;nan;102881.94;5013300;28;20382;-71
2022/03/19 01:37:31;;;;;;;30.15;18.60;;;;;;;7.25;nan;102879.41;5012110;28;20045;-71
2022/03/19 01:39:57;;;;;;;32.75;19.42;;;;;;;7.25;nan;102877.59;5012662;28;20524;-71
2022/03/19 01:42:28;;;;;;;38.72;19.85;;;;;;;7.25;nan;102869.72;5011024;28;20060;-71
2022/03/19 01:44:55;;;;;;;31.95;17.58;;;;;;;7.23;nan;102874.19;5012992;28;20118;-71
2022/03/19 01:47:21;;;;;;;28.90;17.00;;;;;;;7.19;nan;102881.38;5012907;28;20557;-71
2022/03/19 01:49:47;;;;;;;31.10;18.65;;;;;;;7.19;nan;102870.84;5000639;28;20038;-71
2022/03/19 01:52:12;;;;;;;32.83;18.40;;;;;;;7.13;nan;102865.88;4992390;28;20532;-72
2022/03/19 01:54:41;;;;;;;32.78;19.13;;;;;;;7.18;nan;102863.03;4992901;28;20395;-71
2022/03/19 01:57:08;;;;;;;33.55;18.33;;;;;;;7.21;nan;102868.16;4998722;28;20038;-71
2022/03/19 01:59:36;;;;;;;29.77;17.13;;;;;;;7.22;nan;102870.72;5012615;28;20261;-71
2022/03/19 02:02:07;;;;;;;29.08;18.02;;;;;;;7.15;nan;102866.66;5017935;28;20037;-71
2022/03/19 02:04:36;;;;;;;28.63;17.38;;;;;;;7.11;nan;102865.09;5012872;28;20119;-71
2022/03/19 02:07:02;;;;;;;31.30;17.48;;;;;;;7.10;nan;102866.00;5010952;28;20026;-71
2022/03/19 02:09:28;;;;;;;32.05;18.35;;;;;;;7.10;nan;102860.75;5012864;28;20076;-70
2022/03/19 02:11:54;;;;;;;29.38;17.77;;;;;;;7.05;nan;102861.88;5011326;28;20025;-71
2022/03/19 02:14:19;;;;;;;37.60;18.92;;;;;;;7.06;nan;102859.19;4995192;28;20034;-71
2022/03/19 02:16:46;;;;;;;31.90;17.75;;;;;;;7.00;nan;102854.22;5002412;28;20022;-73
2022/03/19 02:19:11;;;;;;;27.45;16.85;;;;;;;6.94;nan;102852.72;4992766;28;20388;-73
2022/03/19 02:21:40;;;;;;;33.08;18.38;;;;;;;6.97;nan;102854.34;5005005;28;20030;-73
2022/03/19 02:26:50;;;;;;;31.48;18.75;;;;;;;6.97;nan;102859.63;4993542;28;20033;-73
2022/03/19 02:29:15;;;;;;;32.35;17.33;;;;;;;6.96;nan;102848.25;4998222;28;20042;-71
2022/03/19 02:31:43;;;;;;;28.30;16.55;;;;;;;6.94;nan;102844.00;5011812;28;20041;-70
2022/03/19 02:34:08;;;;;;;33.28;19.67;;;;;;;7.02;nan;102841.84;5004887;28;20077;-72
2022/03/19 02:36:35;;;;;;;31.00;18.08;;;;;;;6.97;nan;102834.16;4992419;28;20030;-73
2022/03/19 02:39:20;;;;;;;29.10;16.88;;;;;;;6.94;nan;102838.72;5005943;28;20030;-71
2022/03/19 02:41:48;;;;;;;29.60;16.75;;;;;;;6.87;nan;102835.53;5017737;28;20149;-73
2022/03/19 02:44:15;;;;;;;28.80;17.23;;;;;;;6.89;nan;102838.94;5001718;28;20045;-71
2022/03/19 02:46:53;;;;;;;31.83;17.90;;;;;;;6.88;nan;102826.69;5003769;28;20040;-71
2022/03/19 02:49:19;;;;;;;24.42;15.30;;;;;;;6.84;nan;102826.91;5003403;28;20029;-71
2022/03/19 02:51:46;;;;;;;29.42;17.67;;;;;;;6.84;nan;102834.78;5005457;28;20473;-71
2022/03/19 02:54:14;;;;;;;31.45;17.42;;;;;;;6.84;nan;102830.41;5010845;28;20037;-71
2022/03/19 02:56:41;;;;;;;33.53;18.98;;;;;;;6.83;nan;102825.22;5018504;28;20522;-73
2022/03/19 02:59:06;;;;;;;28.80;16.92;;;;;;;6.77;nan;102829.84;5030900;28;20044;-72
2022/03/19 03:01:32;;;;;;;26.67;16.85;;;;;;;6.74;nan;102835.22;5029138;28;20041;-71
2022/03/19 03:03:58;;;;;;;27.20;16.20;;;;;;;6.75;nan;102836.09;5031029;28;20056;-72
2022/03/19 03:06:24;;;;;;;26.60;16.48;;;;;;;6.71;nan;102837.16;5030469;28;20033;-72
2022/03/19 03:08:49;;;;;;;29.15;16.27;;;;;;;6.68;nan;102838.13;5021148;28;20026;-73
2022/03/19 03:11:15;;;;;;;31.08;17.67;;;;;;;6.72;nan;102841.47;5020968;28;20560;-73
2022/03/19 03:13:40;;;;;;;29.08;16.52;;;;;;;6.64;nan;102835.72;5015881;28;20068;-72
2022/03/19 03:16:05;;;;;;;31.52;17.35;;;;;;;6.62;nan;102835.78;5030407;28;20120;-73
2022/03/19 03:18:31;;;;;;;27.98;17.10;;;;;;;6.68;nan;102839.94;5030737;28;20176;-73
2022/03/19 03:20:58;;;;;;;31.50;16.33;;;;;;;6.68;nan;102834.66;5030592;28;20378;-72
2022/03/19 03:23:23;;;;;;;28.17;16.35;;;;;;;6.70;nan;102824.94;5004180;28;20038;-73
2022/03/19 03:25:49;;;;;;;30.48;17.45;;;;;;;6.64;nan;102827.84;4994090;28;20038;-73
2022/03/19 03:28:14;;;;;;;29.95;16.10;;;;;;;6.65;nan;102838.28;5018944;28;20038;-73
2022/03/19 03:30:39;;;;;;;28.30;16.17;;;;;;;6.64;nan;102835.72;5030895;28;20079;-72
2022/03/19 03:33:04;;;;;;;28.92;16.63;;;;;;;6.66;nan;102828.63;5030781;28;20033;-72
2022/03/19 03:35:30;;;;;;;28.08;16.75;;;;;;;6.61;nan;102823.56;5012984;28;20046;-72
2022/03/19 03:37:55;;;;;;;28.67;17.40;;;;;;;6.57;nan;102822.00;5010239;28;20402;-72
2022/03/19 03:40:21;;;;;;;27.63;16.70;;;;;;;6.57;nan;102824.63;5009641;28;20033;-72
2022/03/19 03:42:47;;;;;;;34.63;18.83;;;;;;;6.57;nan;102830.72;5010739;28;20030;-73
2022/03/19 03:45:12;;;;;;;29.42;17.40;;;;;;;6.61;nan;102828.81;4996922;28;20399;-72
2022/03/19 03:47:38;;;;;;;30.60;17.85;;;;;;;6.65;nan;102829.53;5013667;28;20041;-73
2022/03/19 03:50:04;;;;;;;28.65;16.25;;;;;;;6.65;nan;102821.63;5029571;28;20381;-72
2022/03/19 03:52:30;;;;;;;29.75;16.77;;;;;;;6.62;nan;102832.31;4991294;28;20027;-72
2022/03/19 03:54:56;;;;;;;27.33;16.38;;;;;;;6.63;nan;102818.25;5010277;28;20044;-72
2022/03/19 03:57:21;;;;;;;27.50;15.50;;;;;;;6.55;nan;102818.56;5010105;28;20044;-72
2022/03/19 03:59:48;;;;;;;30.67;17.23;;;;;;;6.55;nan;102805.44;5010364;28;20037;-72
2022/03/19 04:02:14;;;;;;;32.80;16.83;;;;;;;6.59;nan;102813.13;4999311;28;20035;-73
2022/03/19 04:04:39;;;;;;;33.05;18.92;;;;;;;6.65;nan;102806.75;5010243;28;20088;-73
2022/03/19 04:07:04;;;;;;;28.98;17.25;;;;;;;6.59;nan;102813.13;5001816;28;20038;-72
2022/03/19 04:09:30;;;;;;;27.67;16.58;;;;;;;6.61;nan;102802.53;4990276;28;20034;-72
2022/03/19 04:11:55;;;;;;;27.70;16.65;;;;;;;6.58;nan;102808.78;4990892;28;20034;-72
2022/03/19 04:14:20;;;;;;;29.73;17.50;;;;;;;6.66;nan;102802.31;4990642;28;20038;-73
2022/03/19 04:16:45;;;;;;;30.70;17.17;;;;;;;6.70;nan;102803.91;5003157;28;20510;-72
2022/03/19 04:19:11;;;;;;;30.10;17.65;;;;;;;6.76;nan;102795.72;5010045;28;20132;-73
2022/03/19 04:21:36;;;;;;;24.13;15.50;;;;;;;6.72;nan;102792.38;5017707;28;20045;-72
2022/03/19 04:24:01;;;;;;;27.30;15.40;;;;;;;6.74;nan;102780.00;5013770;28;20523;-72
2022/03/19 04:26:27;;;;;;;27.42;16.00;;;;;;;6.72;nan;102787.13;5009785;28;20037;-72
2022/03/19 04:28:52;;;;;;;31.63;16.60;;;;;;;6.75;nan;102786.13;5022498;28;20091;-72
2022/03/19 04:31:17;;;;;;;32.85;16.25;;;;;;;6.76;nan;102777.31;5010330;28;20128;-72
2022/03/19 04:33:43;;;;;;;26.52;15.20;;;;;;;6.75;nan;102768.56;5005476;28;20506;-72
2022/03/19 04:38:52;;;;;;;25.88;15.52;;;;;;;6.70;nan;102770.56;5010759;28;20037;-72
2022/03/19 04:41:17;;;;;;;27.63;15.77;;;;;;;6.75;nan;102763.31;5003800;28;20034;-72
2022/03/19 04:43:42;;;;;;;24.70;14.65;;;;;;;6.77;nan;102761.47;5009796;28;20085;-73
2022/03/19 04:46:08;;;;;;;23.35;13.52;;;;;;;6.74;nan;102764.22;5009213;28;20272;-73
2022/03/19 04:48:33;;;;;;;26.02;13.98;;;;;;;6.66;nan;102762.91;5007193;28;20109;-73
2022/03/19 04:50:58;;;;;;;23.30;14.00;;;;;;;6.68;nan;102764.53;4990065;28;20050;-72
2022/03/19 04:53:25;;;;;;;26.27;14.05;;;;;;;6.69;nan;102758.31;5011490;28;20034;-73
2022/03/19 04:55:50;;;;;;;27.25;13.73;;;;;;;6.68;nan;102763.69;5014839;28;20042;-73
2022/03/19 04:58:16;;;;;;;21.67;11.43;;;;;;;6.69;nan;102763.59;5007072;28;20034;-72
2022/03/19 05:00:42;;;;;;;21.85;11.95;;;;;;;6.64;nan;102765.59;5008142;28;20518;-73
2022/03/19 05:03:09;;;;;;;22.80;12.70;;;;;;;6.66;nan;102766.38;5005515;28;20033;-73
2022/03/19 05:05:35;;;;;;;25.08;11.77;;;;;;;6.61;nan;102767.50;5011098;28;20033;-73
2022/03/19 05:08:00;;;;;;;18.58;10.77;;;;;;;6.62;nan;102758.69;5010332;28;20046;-72
2022/03/19 05:13:09;;;;;;;20.15;11.75;;;;;;;6.54;nan;102754.66;5001581;28;20100;-72
2022/03/19 05:15:35;;;;;;;25.38;11.68;;;;;;;6.56;nan;102762.47;5009098;28;20030;-72
2022/03/19 05:18:00;;;;;;;22.65;11.32;;;;;;;6.59;nan;102762.31;5008623;28;20269;-72
2022/03/19 05:20:26;;;;;;;21.17;10.10;;;;;;;6.59;nan;102755.28;5008919;28;20048;-72
2022/03/19 05:22:51;;;;;;;17.95;10.15;;;;;;;6.58;nan;102758.84;5009287;28;20522;-72
2022/03/19 05:25:17;;;;;;;18.40;9.50;;;;;;;6.59;nan;102765.78;5009568;28;20058;-72
2022/03/19 05:27:42;;;;;;;17.63;9.65;;;;;;;6.51;nan;102753.94;5000337;28;20483;-72
2022/03/19 05:30:08;;;;;;;19.42;10.23;;;;;;;6.44;nan;102750.75;5007495;28;20066;-72
2022/03/19 05:32:34;;;;;;;18.30;10.10;;;;;;;6.49;nan;102763.69;4993043;28;20503;-72
2022/03/19 05:35:01;;;;;;;20.38;10.90;;;;;;;6.48;nan;102767.22;4989513;28;20038;-72
2022/03/19 05:37:27;;;;;;;20.00;10.38;;;;;;;6.48;nan;102757.53;4989322;28;20035;-72
2022/03/19 05:39:55;;;;;;;20.80;10.88;;;;;;;6.51;nan;102760.06;4992612;28;20529;-72
2022/03/19 05:42:21;;;;;;;20.05;10.05;;;;;;;6.58;nan;102753.59;4989693;28;20125;-73
2022/03/19 05:44:46;;;;;;;19.17;11.20;;;;;;;6.59;nan;102762.31;4989601;28;20031;-72
2022/03/19 05:47:12;;;;;;;18.73;10.00;;;;;;;6.56;nan;102755.44;4990906;28;20050;-72
2022/03/19 05:49:37;;;;;;;21.33;10.82;;;;;;;6.57;nan;102757.13;5028490;28;20029;-72
2022/03/19 05:52:03;;;;;;;19.30;10.55;;;;;;;6.61;nan;102749.13;5011735;28;20041;-72
2022/03/19 05:54:29;;;;;;;17.55;10.15;;;;;;;6.64;nan;102748.97;4997872;28;20097;-72
2022/03/19 05:56:54;;;;;;;22.55;10.95;;;;;;;6.63;nan;102749.91;4989521;28;20555;-72
2022/03/19 05:59:20;;;;;;;21.70;10.73;;;;;;;6.64;nan;102751.59;4988465;28;20070;-72
2022/03/19 06:01:46;;;;;;;21.92;10.90;;;;;;;6.70;nan;102746.06;5002654;28;20033;-72
2022/03/19 06:04:11;;;;;;;20.55;11.25;;;;;;;6.73;nan;102754.63;5005487;28;20049;-72
2022/03/19 06:06:37;;;;;;;22.60;12.38;;;;;;;6.77;nan;102756.22;4989351;28;20120;-72
2022/03/19 06:09:03;;;;;;;23.98;11.40;;;;;;;6.81;nan;102751.66;5009498;28;20046;-72
2022/03/19 06:11:28;;;;;;;21.58;11.35;;;;;;;6.91;nan;102750.31;5011761;28;20022;-72
2022/03/19 06:13:54;;;;;;;19.73;10.68;;;;;;;6.98;nan;102746.44;5012547;28;20037;-72
2022/03/19 06:16:20;;;;;;;20.42;10.82;;;;;;;7.14;nan;102748.31;5000141;28;20031;-72
2022/03/19 06:18:50;;;;;;;21.67;11.48;;;;;;;7.13;nan;102738.75;4992478;28;20092;-72
2022/03/19 06:21:19;;;;;;;19.27;10.98;;;;;;;7.26;nan;102744.25;5005482;28;20046;-73
2022/03/19 06:23:46;;;;;;;20.67;11.27;;;;;;;7.49;nan;102740.47;5012068;28;20032;-73
2022/03/19 06:26:12;;;;;;;21.00;11.10;;;;;;;7.65;nan;102744.00;4997754;28;20038;-72
2022/03/19 06:28:37;;;;;;;21.95;11.85;;;;;;;7.77;nan;102737.25;5011185;28;20038;-72
2022/03/19 06:31:03;;;;;;;21.88;11.82;;;;;;;7.79;nan;102733.63;5012202;28;20034;-72
2022/03/19 06:33:28;;;;;;;21.75;12.27;;;;;;;7.86;nan;102734.16;5010599;28;20041;-72
2022/03/19 06:38:37;;;;;;;21.80;12.25;;;;;;;8.13;nan;102728.38;5011036;28;20045;-72
2022/03/19 06:41:02;;;;;;;19.15;11.45;;;;;;;8.20;nan;102735.88;5009819;28;20034;-72
2022/03/19 06:43:28;;;;;;;25.35;14.70;;;;;;;8.40;nan;102728.72;5012269;28;20407;-72
2022/03/19 06:45:58;;;;;;;21.50;12.40;;;;;;;8.43;nan;102724.09;5010241;28;20076;-72
2022/03/19 06:48:24;;;;;;;21.10;12.15;;;;;;;8.56;nan;102718.19;5008736;28;20490;-72
2022/03/19 06:50:50;;;;;;;22.83;13.25;;;;;;;8.68;nan;102728.91;5010163;28;20441;-72
2022/03/19 06:53:16;;;;;;;23.13;12.18;;;;;;;8.76;nan;102720.56;5011506;28;20034;-72
2022/03/19 06:55:41;;;;;;;23.75;13.48;;;;;;;8.82;nan;102716.72;5004306;28;20037;-72
2022/03/19 06:58:06;;;;;;;23.75;14.07;;;;;;;8.92;nan;102721.41;4991759;28;20035;-72
2022/03/19 07:00:32;;;;;;;23.23;12.43;;;;;;;8.92;nan;102712.63;5004874;28;20057;-72
2022/03/19 07:02:57;;;;;;;23.38;12.73;;;;;;;8.93;nan;102722.22;5004491;28;20105;-72
2022/03/19 07:05:26;;;;;;;24.48;14.30;;;;;;;9.01;nan;102724.44;5004220;28;20394;-72
2022/03/19 07:07:54;;;;;;;20.58;13.20;;;;;;;8.81;nan;102722.94;5011442;28;20034;-72
2022/03/19 07:10:20;;;;;;;20.00;12.02;;;;;;;8.57;nan;102722.53;5006471;28;20031;-73
2022/03/19 07:12:46;;;;;;;22.88;13.52;;;;;;;8.61;nan;102730.19;4991863;28;20660;-71
2022/03/19 07:15:13;;;;;;;21.45;11.70;;;;;;;8.55;nan;102727.03;5001556;28;20038;-72
2022/03/19 07:17:39;;;;;;;19.67;10.70;;;;;;;8.47;nan;102730.94;5010329;28;20511;-72
2022/03/19 07:20:06;;;;;;;19.98;10.93;;;;;;;8.43;nan;102732.03;5010521;28;20041;-72
2022/03/19 07:22:54;;;;;;;15.55;8.88;;;;;;;8.49;nan;102725.59;5010993;28;20109;-72
2022/03/19 07:25:21;;;;;;;21.73;10.45;;;;;;;8.67;nan;102721.06;5009881;28;20030;-72
2022/03/19 07:27:48;;;;;;;17.52;8.85;;;;;;;8.74;nan;102722.41;5004157;28;20533;-72
2022/03/19 07:30:14;;;;;;;18.48;9.07;;;;;;;8.96;nan;102724.69;5021303;28;20077;-72
2022/03/19 07:32:39;;;;;;;16.55;8.57;;;;;;;9.32;nan;102720.91;5006355;28;20074;-72
2022/03/19 07:35:06;;;;;;;16.40;8.45;;;;;;;9.68;nan;102724.94;4998766;28;20038;-72
2022/03/19 07:37:32;;;;;;;14.85;8.30;;;;;;;9.86;nan;102729.09;4993260;28;20116;-72
2022/03/19 07:39:58;;;;;;;14.45;8.30;;;;;;;9.95;nan;102730.34;4996446;28;20038;-73
2022/03/19 07:42:24;;;;;;;16.45;8.30;;;;;;;10.19;nan;102725.34;5010961;28;20097;-72
2022/03/19 07:44:50;;;;;;;13.02;7.95;;;;;;;10.28;nan;102740.66;5001216;28;20122;-72
2022/03/19 07:47:15;;;;;;;15.93;8.32;;;;;;;10.33;nan;102738.59;5012194;28;20061;-72
2022/03/19 07:49:41;;;;;;;14.57;7.85;;;;;;;10.59;nan;102744.03;5014484;28;20035;-72
2022/03/19 07:52:09;;;;;;;13.75;7.82;;;;;;;10.59;nan;102722.88;4991627;28;20034;-73
2022/03/19 07:54:36;;;;;;;14.68;8.10;;;;;;;10.82;nan;102724.03;4991692;28;20042;-72
2022/03/19 07:57:02;;;;;;;17.23;8.35;;;;;;;10.86;nan;102743.22;4993287;28;20042;-72
2022/03/19 07:59:27;;;;;;;14.00;8.13;;;;;;;11.00;nan;102740.50;4999059;28;20038;-72
2022/03/19 08:01:53;;;;;;;15.10;8.13;;;;;;;11.18;nan;102735.81;4998529;28;20096;-73
2022/03/19 08:04:18;;;;;;;14.75;8.15;;;;;;;11.19;nan;102727.75;5008974;28;20034;-72
2022/03/19 08:06:44;;;;;;;13.95;7.82;;;;;;;11.32;nan;102726.94;5029867;28;20022;-72
2022/03/19 08:09:10;;;;;;;14.30;7.82;;;;;;;11.11;nan;102719.50;5015799;28;20045;-73
2022/03/19 08:11:36;;;;;;;16.55;7.03;;;;;;;11.51;nan;102738.00;5009655;28;20034;-73
2022/03/19 08:14:02;;;;;;;13.00;6.22;;;;;;;11.95;nan;102728.84;5012213;28;20038;-73
2022/03/19 08:16:27;;;;;;;12.35;6.70;;;;;;;12.17;nan;102735.28;5018859;28;20037;-73
2022/03/19 08:18:53;;;;;;;11.63;6.43;;;;;;;12.42;nan;102723.78;5016461;28;20072;-73
2022/03/19 08:21:18;;;;;;;12.35;6.07;;;;;;;12.41;nan;102719.44;5028634;28;20037;-73
2022/03/19 08:23:46;;;;;;;10.70;5.93;;;;;;;12.92;nan;102727.25;5019582;28;20407;-73
2022/03/19 08:26:11;;;;;;;12.52;5.90;;;;;;;13.13;nan;102727.44;5016232;28;20036;-73
2022/03/19 08:28:37;;;;;;;11.45;6.20;;;;;;;13.35;nan;102730.22;5013997;28;20514;-73
2022/03/19 08:31:02;;;;;;;10.90;6.03;;;;;;;13.22;nan;102732.06;5011469;28;20120;-73
2022/03/19 08:33:27;;;;;;;9.98;4.97;;;;;;;13.05;nan;102725.34;5003629;28;20042;-73
2022/03/19 08:35:53;;;;;;;9.63;5.00;;;;;;;13.20;nan;102728.66;5010027;28;20136;-73
2022/03/19 08:41:02;;;;;;;8.60;5.03;;;;;;;13.97;nan;102734.34;5020337;28;20041;-72
2022/03/19 08:43:27;;;;;;;9.02;4.75;;;;;;;13.74;nan;102730.78;5017325;28;20034;-73
2022/03/19 08:45:53;;;;;;;9.23;4.50;;;;;;;13.89;nan;102723.44;5016783;28;20038;-73
2022/03/19 08:48:18;;;;;;;6.68;4.60;;;;;;;14.18;nan;102723.81;5021437;28;20051;-73
2022/03/19 08:50:45;;;;;;;7.68;4.93;;;;;;;14.01;nan;102729.59;5007868;28;20449;-73
2022/03/19 08:53:10;;;;;;;9.35;5.43;;;;;;;14.14;nan;102718.88;4997417;28;20084;-73
2022/03/19 08:55:36;;;;;;;8.30;4.40;;;;;;;14.12;nan;102720.78;5009185;28;20034;-72
2022/03/19 08:58:03;;;;;;;10.43;5.40;;;;;;;14.00;nan;102714.63;4998614;28;20066;-74
2022/03/19 09:00:28;;;;;;;11.13;5.25;;;;;;;14.40;nan;102711.47;5008700;28;20117;-72
2022/03/19 09:02:55;;;;;;;7.47;4.32;;;;;;;14.66;nan;102701.41;5002505;28;20120;-73
2022/03/19 09:05:21;;;;;;;8.27;4.68;;;;;;;15.05;nan;102697.25;5007761;28;20099;-73
2022/03/19 09:07:46;;;;;;;10.10;5.50;;;;;;;15.35;nan;102708.97;5006074;28;20042;-73
2022/03/19 09:10:11;;;;;;;7.35;4.82;;;;;;;15.72;nan;102711.19;5000544;28;20070;-73
2022/03/19 09:12:39;;;;;;;8.95;5.22;;;;;;;15.53;nan;102713.72;5006551;28;20092;-73
2022/03/19 09:15:06;;;;;;;8.75;5.25;;;;;;;15.31;nan;102701.38;5007541;28;20074;-73
2022/03/19 09:17:32;;;;;;;8.80;4.55;;;;;;;15.67;nan;102703.56;5008372;28;20105;-73
2022/03/19 09:19:57;;;;;;;9.15;4.53;;;;;;;15.74;nan;102711.91;4998473;28;20034;-74
2022/03/19 09:22:23;;;;;;;8.13;4.20;;;;;;;15.89;nan;102691.91;5005511;28;20041;-73
2022/03/19 09:24:48;;;;;;;8.10;4.70;;;;;;;15.97;nan;102701.06;5009453;28;20403;-72
2022/03/19 09:27:14;;;;;;;9.30;5.47;;;;;;;16.07;nan;102701.97;5010964;28;20494;-73
2022/03/19 09:29:39;;;;;;;6.40;4.10;;;;;;;16.16;nan;102698.50;5011093;28;20067;-73
2022/03/19 09:32:05;;;;;;;6.85;4.00;;;;;;;16.65;nan;102679.91;5008775;28;20120;-73
2022/03/19 09:34:31;;;;;;;7.90;4.28;;;;;;;17.19;nan;102679.34;5009319;28;20080;-73
2022/03/19 09:36:56;;;;;;;8.98;4.30;;;;;;;17.28;nan;102679.47;5004484;28;20030;-73
2022/03/19 09:39:21;;;;;;;7.95;5.00;;;;;;;16.91;nan;102674.88;5008915;28;20116;-73
2022/03/19 09:41:47;;;;;;;7.88;4.20;;;;;;;16.75;nan;102657.53;5008170;28;20518;-73
2022/03/19 09:44:13;;;;;;;7.18;4.40;;;;;;;16.94;nan;102663.91;5011634;28;20590;-73
2022/03/19 09:46:39;;;;;;;7.13;4.18;;;;;;;17.43;nan;102659.31;5012532;28;20509;-73
2022/03/19 09:49:04;;;;;;;7.50;4.20;;;;;;;18.03;nan;102646.44;5019560;28;20034;-73
2022/03/19 09:51:34;;;;;;;8.63;4.63;;;;;;;18.26;nan;102638.00;4994809;28;20038;-73
2022/03/19 09:54:00;;;;;;;7.15;4.07;;;;;;;18.09;nan;102633.44;5008362;28;20034;-72
2022/03/19 09:56:25;;;;;;;6.65;3.92;;;;;;;18.33;nan;102616.78;4997767;28;20052;-72
2022/03/19 09:58:52;;;;;;;5.95;3.30;;;;;;;19.63;nan;102616.97;5011910;28;20096;-72
2022/03/19 10:01:18;;;;;;;6.90;3.70;;;;;;;20.14;nan;102612.50;5018039;28;20033;-72
2022/03/19 10:03:44;;;;;;;5.65;3.15;;;;;;;19.73;nan;102624.94;5012029;28;20522;-72
2022/03/19 10:08:59;;;;;;;5.57;2.92;;;;;;;19.83;nan;102604.19;5012445;28;20037;-73
2022/03/19 10:11:30;;;;;;;7.38;3.20;;;;;;;19.04;nan;102606.09;5010834;28;20034;-73
2022/03/19 10:13:56;;;;;;;6.82;3.45;;;;;;;19.42;nan;102616.53;5005627;28;20400;-73
2022/03/19 10:16:24;;;;;;;6.80;3.28;;;;;;;19.24;nan;102605.88;5003876;28;20446;-73
2022/03/19 10:19:01;;;;;;;4.90;3.13;;;;;;;19.42;nan;102597.75;5007608;28;20041;-72
2022/03/19 10:21:29;;;;;;;6.13;3.40;;;;;;;19.84;nan;102591.59;5011176;28;20057;-73
2022/03/19 10:23:59;;;;;;;5.82;3.25;;;;;;;20.71;nan;102582.19;5007691;28;20034;-73
2022/03/19 10:26:26;;;;;;;6.10;3.75;;;;;;;21.60;nan;102590.28;4993426;28;20042;-72
2022/03/19 10:29:10;;;;;;;6.68;3.60;;;;;;;21.57;nan;102579.81;5003557;28;20042;-72
2022/03/19 10:31:46;;;;;;;6.18;3.45;;;;;;;21.84;nan;102582.06;5003178;28;20046;-73
2022/03/19 10:34:12;;;;;;;6.82;3.92;;;;;;;21.58;nan;102592.28;4998030;28;20604;-73
2022/03/19 10:36:39;;;;;;;6.20;3.70;;;;;;;21.30;nan;102573.84;5002983;28;20039;-73
2022/03/19 10:39:27;;;;;;;6.47;3.53;;;;;;;20.17;nan;102560.28;5007714;28;20037;-72
2022/03/19 10:41:55;;;;;;;6.00;3.63;;;;;;;21.03;nan;102567.03;5004002;28;20117;-72
2022/03/19 10:44:24;;;;;;;5.55;3.30;;;;;;;21.77;nan;102559.56;5004611;28;20521;-72
2022/03/19 10:46:55;;;;;;;4.85;3.22;;;;;;;21.63;nan;102555.75;5003687;28;20129;-72
2022/03/19 10:49:23;;;;;;;7.22;4.07;;;;;;;21.77;nan;102551.47;5007118;28;20338;-73
2022/03/19 10:51:52;;;;;;;6.22;3.72;;;;;;;22.17;nan;102541.47;5008952;28;20036;-73
2022/03/19 10:54:18;;;;;;;7.13;3.67;;;;;;;22.84;nan;102546.13;5006769;28;20034;-73
2022/03/19 10:56:44;;;;;;;8.82;3.95;;;;;;;21.60;nan;102548.03;5010539;28;20034;-73
2022/03/19 10:59:10;;;;;;;6.28;3.33;;;;;;;21.95;nan;102547.66;5010986;28;20033;-73
2022/03/19 11:01:36;;;;;;;6.30;3.35;;;;;;;20.58;nan;102531.63;5013008;28;20570;-73
2022/03/19 11:04:04;;;;;;;4.15;2.47;;;;;;;20.49;nan;102529.91;5011421;28;20369;-73
2022/03/19 11:06:36;;;;;;;6.95;2.58;;;;;;;21.25;nan;102532.31;5007904;28;20461;-73
2022/03/19 11:09:10;;;;;;;5.50;2.42;;;;;;;21.14;nan;102530.84;5010353;28;20482;-73
2022/03/19 11:11:44;;;;;;;5.05;2.70;;;;;;;21.27;nan;102515.00;4992949;28;20044;-72
2022/03/19 11:14:17;;;;;;;5.30;2.80;;;;;;;21.74;nan;102514.13;5012318;28;20057;-72
2022/03/19 11:17:23;;;;;;;7.53;3.47;;;;;;;22.00;nan;102504.84;5010560;28;20053;-72
2022/03/19 11:19:32;;;;;;;5.15;2.65;;;;;;;21.34;nan;102507.06;5010628;28;20053;-72
2022/03/19 11:21:58;;;;;;;5.15;2.70;;;;;;;22.10;nan;102497.41;4999967;28;20038;-72
2022/03/19 11:24:26;;;;;;;5.85;2.38;;;;;;;22.54;nan;102494.00;5001080;28;20041;-72
2022/03/19 11:26:53;;;;;;;6.32;2.58;;;;;;;23.29;nan;102489.50;5004549;28;20048;-72
2022/03/19 11:29:19;;;;;;;4.38;2.63;;;;;;;23.27;nan;102486.16;5019895;28;20064;-72
2022/03/19 11:32:01;;;;;;;4.10;2.25;;;;;;;24.14;nan;102483.34;5008961;28;20034;-72
2022/03/19 11:34:42;;;;;;;5.80;2.33;;;;;;;23.98;nan;102480.09;5009593;28;20038;-73
2022/03/19 11:37:07;;;;;;;5.22;2.63;;;;;;;23.50;nan;102470.66;5002731;28;20034;-72
2022/03/19 11:39:33;;;;;;;3.95;2.10;;;;;;;23.02;nan;102464.00;5005320;28;20061;-73
2022/03/19 11:41:59;;;;;;;4.32;2.03;;;;;;;22.92;nan;102461.56;5007514;28;20144;-73
2022/03/19 11:44:25;;;;;;;3.50;1.90;;;;;;;22.40;nan;102443.59;5005326;28;20029;-73
2022/03/19 11:46:58;;;;;;;5.00;2.20;;;;;;;21.32;nan;102449.88;5009883;28;20046;-74
2022/03/19 11:49:45;;;;;;;4.45;2.17;;;;;;;21.71;nan;102452.53;5012831;28;20044;-74